createdAt,value
2019-04-20T02:03:49.000Z,0.99
2019-04-20T02:08:37.000Z,0.89
2019-04-20T02:13:25.000Z,0.84
2019-04-20T02:18:13.000Z,0.75
2019-04-20T02:23:01.000Z,0.64
2019-04-20T02:27:49.000Z,0.57
2019-04-20T02:32:37.000Z,0.48
2019-04-20T02:37:25.000Z,0.37
2019-04-20T02:42:13.000Z,0.30
2019-04-20T02:42:13.000Z,0.30
2019-04-20T02:47:01.000Z,0.26
2019-04-20T02:47:01.000Z,0.26
2019-04-20T02:51:48.000Z,0.19
2019-04-20T02:56:36.000Z,0.12
2019-04-20T03:06:12.000Z,-0.08
2019-04-20T03:10:59.000Z,-0.16
2019-04-20T03:15:47.000Z,-0.24
2019-04-20T03:20:35.000Z,-0.32
2019-04-20T03:25:23.000Z,-0.41
2019-04-20T03:30:11.000Z,-0.47
2019-04-20T03:30:11.000Z,-0.47
2019-04-20T03:34:59.000Z,-0.55
2019-04-20T03:39:47.000Z,-0.60
2019-04-20T03:44:35.000Z,-0.52
2019-04-20T03:49:22.000Z,-0.51
2019-04-20T03:54:10.000Z,-0.56
2019-04-20T03:58:58.000Z,-0.72
2019-04-20T04:03:46.000Z,-0.83
2019-04-20T04:08:33.000Z,-0.88
2019-04-20T04:13:21.000Z,-0.89
2019-04-20T04:18:10.000Z,-0.94
2019-04-20T04:22:57.000Z,-1.00
2019-04-20T04:27:45.000Z,-1.01
2019-04-20T04:32:32.000Z,-0.96
2019-04-20T04:37:20.000Z,-0.88
2019-04-20T04:42:08.000Z,-0.67
2019-04-20T04:46:56.000Z,-0.38
2019-04-20T04:51:45.000Z,-0.08
2019-04-20T04:56:33.000Z,0.23
2019-04-20T05:01:21.000Z,0.76
2019-04-20T05:06:10.000Z,1.30
2019-04-20T05:10:58.000Z,1.80
2019-04-20T05:15:47.000Z,2.32
2019-04-20T05:20:35.000Z,2.83
2019-04-20T05:25:24.000Z,3.43
2019-04-20T05:30:13.000Z,4.21
2019-04-20T05:35:01.000Z,4.93
2019-04-20T05:39:50.000Z,5.70
2019-04-20T05:44:39.000Z,6.53
2019-04-20T05:49:27.000Z,7.31
2019-04-20T05:54:16.000Z,8.06
2019-04-20T05:59:05.000Z,8.89
2019-04-20T06:03:54.000Z,9.83
2019-04-20T06:08:43.000Z,10.72
2019-04-20T06:13:31.000Z,11.63
2019-04-20T06:18:20.000Z,12.50
2019-04-20T06:23:09.000Z,13.55
2019-04-20T06:27:58.000Z,14.39
2019-04-20T06:32:47.000Z,15.46
2019-04-20T06:37:36.000Z,16.37
2019-04-20T06:42:25.000Z,17.10
2019-04-20T06:47:14.000Z,18.01
2019-04-20T06:52:03.000Z,18.77
2019-04-20T06:56:52.000Z,19.39
2019-04-20T07:01:42.000Z,20.24
2019-04-20T07:06:30.000Z,21.03
2019-04-20T07:11:20.000Z,21.75
2019-04-20T07:16:09.000Z,22.33
2019-04-20T07:20:57.000Z,22.83
2019-04-20T07:25:46.000Z,23.55
2019-04-20T07:30:35.000Z,24.11
2019-04-20T07:35:24.000Z,24.45
2019-04-20T07:40:13.000Z,24.69
2019-04-20T07:45:01.000Z,24.88
2019-04-20T07:49:50.000Z,25.31
2019-04-20T07:54:38.000Z,25.72
2019-04-20T07:59:26.000Z,25.64
2019-04-20T08:04:14.000Z,25.57
2019-04-20T08:09:02.000Z,25.73
2019-04-20T08:13:51.000Z,25.85
2019-04-20T08:18:40.000Z,26.32
2019-04-20T08:23:28.000Z,26.39
2019-04-20T08:28:16.000Z,26.26
2019-04-20T08:33:04.000Z,26.19
2019-04-20T08:37:53.000Z,26.77
2019-04-20T08:37:53.000Z,26.77
2019-04-20T08:42:42.000Z,27.75
2019-04-20T08:47:32.000Z,28.91
2019-04-20T08:52:21.000Z,29.25
2019-04-20T08:57:08.000Z,28.91
2019-04-20T09:01:57.000Z,29.32
2019-04-20T09:06:46.000Z,29.97
2019-04-20T09:11:34.000Z,29.49
2019-04-20T09:16:21.000Z,28.82
2019-04-20T09:21:09.000Z,28.46
2019-04-20T09:25:58.000Z,28.59
2019-04-20T09:30:46.000Z,28.44
2019-04-20T09:35:34.000Z,27.70
2019-04-20T09:40:21.000Z,27.03
2019-04-20T09:45:10.000Z,27.30
2019-04-20T09:49:59.000Z,27.73
2019-04-20T09:54:47.000Z,27.51
2019-04-20T09:59:36.000Z,27.50
2019-04-20T10:04:24.000Z,27.96
2019-04-20T10:09:14.000Z,28.68
2019-04-20T10:14:03.000Z,28.66
2019-04-20T10:18:51.000Z,28.70
2019-04-20T10:23:39.000Z,28.69
2019-04-20T10:40:34.000Z,29.68
2019-04-20T10:45:09.000Z,29.45
2019-04-20T10:49:57.000Z,29.25
2019-04-20T10:54:47.000Z,30.20
2019-04-20T10:59:35.000Z,30.85
2019-04-20T11:04:23.000Z,30.56
2019-04-20T11:09:12.000Z,31.19
2019-04-20T11:14:01.000Z,30.99
2019-04-20T11:18:48.000Z,30.82
2019-04-20T11:23:35.000Z,30.31
2019-04-20T11:28:24.000Z,30.62
2019-04-20T11:33:13.000Z,31.83
2019-04-20T11:38:01.000Z,31.55
2019-04-20T11:42:50.000Z,31.96
2019-04-20T11:47:39.000Z,32.71
2019-04-20T11:52:27.000Z,32.83
2019-04-20T11:57:16.000Z,32.95
2019-04-20T12:02:04.000Z,32.61
2019-04-20T12:06:52.000Z,32.41
2019-04-20T12:11:40.000Z,32.07
2019-04-20T12:16:28.000Z,32.16
2019-04-20T12:21:17.000Z,32.16
2019-04-20T12:26:05.000Z,31.82
2019-04-20T12:30:52.000Z,31.48
2019-04-20T12:35:40.000Z,31.16
2019-04-20T12:40:29.000Z,31.07
2019-04-20T12:45:17.000Z,31.09
2019-04-20T12:50:06.000Z,31.48
2019-04-20T12:54:54.000Z,31.78
2019-04-20T12:59:43.000Z,31.83
2019-04-20T13:04:31.000Z,32.06
2019-04-20T13:09:19.000Z,31.87
2019-04-20T13:14:07.000Z,31.94
2019-04-20T13:18:56.000Z,32.60
2019-04-20T13:23:46.000Z,33.75
2019-04-20T13:28:35.000Z,34.33
2019-04-20T13:33:23.000Z,34.00
2019-04-20T13:38:12.000Z,34.01
2019-04-20T13:43:00.000Z,33.67
2019-04-20T13:47:47.000Z,33.00
2019-04-20T13:52:35.000Z,32.23
2019-04-20T13:57:23.000Z,31.98
2019-04-20T14:02:10.000Z,31.23
2019-04-20T14:06:59.000Z,31.64
2019-04-20T14:11:47.000Z,31.56
2019-04-20T14:16:35.000Z,32.11
2019-04-20T14:21:25.000Z,32.68
2019-04-20T14:26:12.000Z,31.92
2019-04-20T14:31:00.000Z,31.46
2019-04-20T14:35:49.000Z,32.38
2019-04-20T14:40:37.000Z,31.82
2019-04-20T14:45:24.000Z,31.40
2019-04-20T14:50:12.000Z,31.03
2019-04-20T14:55:00.000Z,30.72
2019-04-20T14:59:49.000Z,30.23
2019-04-20T15:04:37.000Z,29.97
2019-04-20T15:09:25.000Z,29.49
2019-04-20T15:14:12.000Z,28.79
2019-04-20T15:19:00.000Z,28.20
2019-04-20T15:23:47.000Z,27.51
2019-04-20T15:28:35.000Z,27.21
2019-04-20T15:33:24.000Z,27.40
2019-04-20T15:38:12.000Z,27.41
2019-04-20T15:43:00.000Z,27.45
2019-04-20T15:47:48.000Z,25.96
2019-04-20T15:52:35.000Z,24.23
2019-04-20T15:57:22.000Z,23.20
2019-04-20T16:02:10.000Z,22.50
2019-04-20T16:06:57.000Z,21.96
2019-04-20T16:11:45.000Z,21.55
2019-04-20T16:16:33.000Z,21.30
2019-04-20T16:21:21.000Z,21.04
2019-04-20T16:26:09.000Z,20.84
2019-04-20T16:30:57.000Z,20.70
2019-04-20T16:35:45.000Z,20.58
2019-04-20T16:40:33.000Z,20.40
2019-04-20T16:45:21.000Z,20.24
2019-04-20T16:50:09.000Z,20.09
2019-04-20T16:54:57.000Z,19.97
2019-04-20T16:59:45.000Z,19.84
2019-04-20T17:04:33.000Z,19.70
2019-04-20T17:09:21.000Z,19.54
2019-04-20T17:14:09.000Z,19.37
2019-04-20T17:18:57.000Z,19.20
2019-04-20T17:23:45.000Z,19.03
2019-04-20T17:28:33.000Z,18.84
2019-04-20T17:33:21.000Z,18.65
2019-04-20T17:38:09.000Z,18.44
2019-04-20T17:42:57.000Z,18.25
2019-04-20T17:47:45.000Z,18.03
2019-04-20T17:52:33.000Z,17.75
2019-04-20T17:57:20.000Z,17.41
2019-04-20T18:02:08.000Z,16.98
2019-04-20T18:06:56.000Z,16.52
2019-04-20T18:11:43.000Z,16.07
2019-04-20T18:16:31.000Z,15.59
2019-04-20T18:21:19.000Z,15.07
2019-04-20T18:26:06.000Z,14.57
2019-04-20T18:30:54.000Z,14.11
2019-04-20T18:35:42.000Z,13.71
2019-04-20T18:40:30.000Z,13.28
2019-04-20T18:45:18.000Z,12.87
2019-04-20T18:50:05.000Z,12.51
2019-04-20T18:54:53.000Z,12.11
2019-04-20T18:59:41.000Z,11.75
2019-04-20T19:04:29.000Z,11.47
2019-04-20T19:09:17.000Z,11.23
2019-04-20T19:14:04.000Z,11.13
2019-04-20T19:18:52.000Z,10.90
2019-04-20T19:23:40.000Z,10.60
2019-04-20T19:28:28.000Z,10.36
2019-04-20T19:33:16.000Z,10.09
2019-04-20T19:38:04.000Z,9.82
2019-04-20T19:42:52.000Z,9.51
2019-04-20T19:47:39.000Z,9.22
2019-04-20T19:52:27.000Z,9.00
2019-04-20T19:57:15.000Z,8.80
2019-04-20T20:02:03.000Z,8.55
2019-04-20T20:06:51.000Z,8.33
2019-04-20T20:11:39.000Z,8.14
2019-04-20T20:16:27.000Z,7.95
2019-04-20T20:21:14.000Z,7.76
2019-04-20T20:26:02.000Z,7.57
2019-04-20T20:30:50.000Z,7.40
2019-04-20T20:35:38.000Z,7.24
2019-04-20T20:40:26.000Z,7.07
2019-04-20T20:45:14.000Z,6.93
2019-04-20T20:50:02.000Z,6.87
2019-04-20T20:54:50.000Z,6.76
2019-04-20T20:59:38.000Z,6.61
2019-04-20T21:04:26.000Z,6.52
2019-04-20T21:09:14.000Z,6.40
2019-04-20T21:14:02.000Z,6.25
2019-04-20T21:18:50.000Z,6.11
2019-04-20T21:23:39.000Z,5.96
2019-04-20T21:28:27.000Z,5.79
2019-04-20T21:33:14.000Z,5.66
2019-04-20T21:38:02.000Z,5.56
2019-04-20T21:42:50.000Z,5.46
2019-04-20T21:47:38.000Z,5.36
2019-04-20T21:52:26.000Z,5.30
2019-04-20T21:57:14.000Z,5.25
2019-04-20T22:02:01.000Z,5.17
2019-04-20T22:06:50.000Z,5.13
2019-04-20T22:11:38.000Z,5.07
2019-04-20T22:16:26.000Z,5.00
2019-04-20T22:21:13.000Z,4.90
2019-04-20T22:26:01.000Z,4.82
2019-04-20T22:30:49.000Z,4.72
2019-04-20T22:35:37.000Z,4.50
2019-04-20T22:40:24.000Z,4.35
2019-04-20T22:45:12.000Z,4.26
2019-04-20T22:50:00.000Z,4.17
2019-04-20T22:54:48.000Z,4.08
2019-04-20T22:59:36.000Z,3.96
2019-04-20T23:04:23.000Z,3.82
2019-04-20T23:09:11.000Z,3.72
2019-04-20T23:13:59.000Z,3.64
2019-04-20T23:18:47.000Z,3.53
2019-04-20T23:23:42.000Z,3.41
2019-04-20T23:28:21.000Z,3.32
2019-04-20T23:33:08.000Z,3.25
2019-04-20T23:37:56.000Z,3.13
2019-04-20T23:42:44.000Z,3.02
2019-04-20T23:47:32.000Z,2.93
2019-04-20T23:52:20.000Z,2.78
2019-04-20T23:57:07.000Z,2.66
